sensor_id;sensor_type;location;lat;lon;timestamp;pressure;altitude;pressure_sealevel;temperature
22828;BMP180;11580;52.562;13.418;2023-06-19T00:01:47;100543.00;;;21.60
22828;BMP180;11580;52.562;13.418;2023-06-19T00:04:15;100533.00;;;21.60
22828;BMP180;11580;52.562;13.418;2023-06-19T00:06:42;100526.00;;;21.60
22828;BMP180;11580;52.562;13.418;2023-06-19T00:09:10;100532.00;;;21.60
22828;BMP180;11580;52.562;13.418;2023-06-19T00:11:37;100539.00;;;21.50
22828;BMP180;11580;52.562;13.418;2023-06-19T00:14:04;100531.00;;;21.50
22828;BMP180;11580;52.562;13.418;2023-06-19T00:16:31;100539.00;;;21.50
22828;BMP180;11580;52.562;13.418;2023-06-19T00:18:58;100531.00;;;21.50
22828;BMP180;11580;52.562;13.418;2023-06-19T00:21:27;100534.00;;;21.50
22828;BMP180;11580;52.562;13.418;2023-06-19T00:23:54;100540.00;;;21.50
22828;BMP180;11580;52.562;13.418;2023-06-19T00:26:22;100534.00;;;21.50
22828;BMP180;11580;52.562;13.418;2023-06-19T00:28:51;100535.00;;;21.50
22828;BMP180;11580;52.562;13.418;2023-06-19T00:31:19;100520.00;;;21.50
22828;BMP180;11580;52.562;13.418;2023-06-19T00:33:49;100533.00;;;21.60
22828;BMP180;11580;52.562;13.418;2023-06-19T00:36:17;100542.00;;;21.60
22828;BMP180;11580;52.562;13.418;2023-06-19T00:38:47;100541.00;;;21.70
22828;BMP180;11580;52.562;13.418;2023-06-19T00:41:16;100544.00;;;21.70
22828;BMP180;11580;52.562;13.418;2023-06-19T00:43:43;100548.00;;;21.80
22828;BMP180;11580;52.562;13.418;2023-06-19T00:46:11;100542.00;;;21.80
22828;BMP180;11580;52.562;13.418;2023-06-19T00:48:39;100536.00;;;21.90
22828;BMP180;11580;52.562;13.418;2023-06-19T00:51:07;100540.00;;;21.90
22828;BMP180;11580;52.562;13.418;2023-06-19T00:53:35;100538.00;;;22.00
22828;BMP180;11580;52.562;13.418;2023-06-19T00:56:05;100540.00;;;22.00
22828;BMP180;11580;52.562;13.418;2023-06-19T00:58:32;100537.00;;;22.10
22828;BMP180;11580;52.562;13.418;2023-06-19T01:01:01;100534.00;;;22.10
22828;BMP180;11580;52.562;13.418;2023-06-19T01:03:29;100538.00;;;22.20
22828;BMP180;11580;52.562;13.418;2023-06-19T01:05:59;100533.00;;;22.20
22828;BMP180;11580;52.562;13.418;2023-06-19T01:08:45;100534.00;;;22.30
22828;BMP180;11580;52.562;13.418;2023-06-19T01:11:20;100533.00;;;22.30
22828;BMP180;11580;52.562;13.418;2023-06-19T01:13:54;100510.00;;;22.40
22828;BMP180;11580;52.562;13.418;2023-06-19T01:16:24;100528.00;;;22.40
22828;BMP180;11580;52.562;13.418;2023-06-19T01:18:53;100524.00;;;22.40
22828;BMP180;11580;52.562;13.418;2023-06-19T01:21:20;100519.00;;;22.50
22828;BMP180;11580;52.562;13.418;2023-06-19T01:23:49;100522.00;;;22.50
22828;BMP180;11580;52.562;13.418;2023-06-19T01:26:17;100512.00;;;22.50
22828;BMP180;11580;52.562;13.418;2023-06-19T01:28:47;100518.00;;;22.50
22828;BMP180;11580;52.562;13.418;2023-06-19T01:31:28;100512.00;;;22.50
22828;BMP180;11580;52.562;13.418;2023-06-19T01:34:00;100507.00;;;22.40
22828;BMP180;11580;52.562;13.418;2023-06-19T01:36:29;100513.00;;;22.40
22828;BMP180;11580;52.562;13.418;2023-06-19T01:39:00;100509.00;;;22.40
22828;BMP180;11580;52.562;13.418;2023-06-19T01:41:31;100505.00;;;22.40
22828;BMP180;11580;52.562;13.418;2023-06-19T01:43:59;100504.00;;;22.30
22828;BMP180;11580;52.562;13.418;2023-06-19T01:46:27;100509.00;;;22.30
22828;BMP180;11580;52.562;13.418;2023-06-19T01:48:55;100501.00;;;22.30
22828;BMP180;11580;52.562;13.418;2023-06-19T01:51:22;100502.00;;;22.30
22828;BMP180;11580;52.562;13.418;2023-06-19T01:53:49;100507.00;;;22.30
22828;BMP180;11580;52.562;13.418;2023-06-19T01:56:18;100498.00;;;22.30
22828;BMP180;11580;52.562;13.418;2023-06-19T01:58:45;100499.00;;;22.30
22828;BMP180;11580;52.562;13.418;2023-06-19T02:01:12;100495.00;;;22.30
22828;BMP180;11580;52.562;13.418;2023-06-19T02:03:39;100501.00;;;22.30
22828;BMP180;11580;52.562;13.418;2023-06-19T02:06:06;100497.00;;;22.30
22828;BMP180;11580;52.562;13.418;2023-06-19T02:08:34;100492.00;;;22.30
22828;BMP180;11580;52.562;13.418;2023-06-19T02:11:01;100491.00;;;22.40
22828;BMP180;11580;52.562;13.418;2023-06-19T02:13:29;100488.00;;;22.40
22828;BMP180;11580;52.562;13.418;2023-06-19T02:15:56;100488.00;;;22.40
22828;BMP180;11580;52.562;13.418;2023-06-19T02:18:27;100489.00;;;22.40
22828;BMP180;11580;52.562;13.418;2023-06-19T02:20:54;100483.00;;;22.40
22828;BMP180;11580;52.562;13.418;2023-06-19T02:23:22;100479.00;;;22.40
22828;BMP180;11580;52.562;13.418;2023-06-19T02:25:49;100477.00;;;22.40
22828;BMP180;11580;52.562;13.418;2023-06-19T02:28:17;100476.00;;;22.40
22828;BMP180;11580;52.562;13.418;2023-06-19T02:30:46;100469.00;;;22.50
22828;BMP180;11580;52.562;13.418;2023-06-19T02:33:13;100473.00;;;22.50
22828;BMP180;11580;52.562;13.418;2023-06-19T02:35:41;100460.00;;;22.50
22828;BMP180;11580;52.562;13.418;2023-06-19T02:38:10;100464.00;;;22.50
22828;BMP180;11580;52.562;13.418;2023-06-19T02:40:38;100464.00;;;22.50
22828;BMP180;11580;52.562;13.418;2023-06-19T02:43:05;100471.00;;;22.50
22828;BMP180;11580;52.562;13.418;2023-06-19T02:45:32;100464.00;;;22.50
22828;BMP180;11580;52.562;13.418;2023-06-19T02:48:01;100468.00;;;22.60
22828;BMP180;11580;52.562;13.418;2023-06-19T02:50:28;100463.00;;;22.60
22828;BMP180;11580;52.562;13.418;2023-06-19T02:52:55;100470.00;;;22.70
22828;BMP180;11580;52.562;13.418;2023-06-19T02:55:22;100455.00;;;22.70
22828;BMP180;11580;52.562;13.418;2023-06-19T02:57:50;100467.00;;;22.80
22828;BMP180;11580;52.562;13.418;2023-06-19T03:00:17;100465.00;;;22.90
22828;BMP180;11580;52.562;13.418;2023-06-19T03:02:44;100471.00;;;23.00
22828;BMP180;11580;52.562;13.418;2023-06-19T03:05:15;100467.00;;;23.10
22828;BMP180;11580;52.562;13.418;2023-06-19T03:07:43;100462.00;;;23.20
22828;BMP180;11580;52.562;13.418;2023-06-19T03:10:10;100467.00;;;23.40
22828;BMP180;11580;52.562;13.418;2023-06-19T03:12:37;100469.00;;;23.50
22828;BMP180;11580;52.562;13.418;2023-06-19T03:15:06;100469.00;;;23.70
22828;BMP180;11580;52.562;13.418;2023-06-19T03:17:36;100466.00;;;23.90
22828;BMP180;11580;52.562;13.418;2023-06-19T03:20:08;100465.00;;;24.00
22828;BMP180;11580;52.562;13.418;2023-06-19T03:22:42;100469.00;;;24.30
22828;BMP180;11580;52.562;13.418;2023-06-19T03:25:13;100477.00;;;24.50
22828;BMP180;11580;52.562;13.418;2023-06-19T03:27:40;100482.00;;;24.80
22828;BMP180;11580;52.562;13.418;2023-06-19T03:30:08;100487.00;;;25.10
22828;BMP180;11580;52.562;13.418;2023-06-19T03:32:40;100491.00;;;25.50
22828;BMP180;11580;52.562;13.418;2023-06-19T03:35:10;100496.00;;;25.90
22828;BMP180;11580;52.562;13.418;2023-06-19T03:37:44;100498.00;;;26.40
22828;BMP180;11580;52.562;13.418;2023-06-19T03:40:12;100505.00;;;26.80
22828;BMP180;11580;52.562;13.418;2023-06-19T03:42:42;100507.00;;;27.30
22828;BMP180;11580;52.562;13.418;2023-06-19T03:45:10;100512.00;;;27.50
22828;BMP180;11580;52.562;13.418;2023-06-19T03:47:37;100514.00;;;27.60
22828;BMP180;11580;52.562;13.418;2023-06-19T03:50:07;100511.00;;;27.60
22828;BMP180;11580;52.562;13.418;2023-06-19T03:52:36;100517.00;;;27.60
22828;BMP180;11580;52.562;13.418;2023-06-19T03:55:07;100524.00;;;27.80
22828;BMP180;11580;52.562;13.418;2023-06-19T03:57:35;100519.00;;;28.10
22828;BMP180;11580;52.562;13.418;2023-06-19T04:00:03;100519.00;;;28.40
22828;BMP180;11580;52.562;13.418;2023-06-19T04:02:38;100515.00;;;28.50
22828;BMP180;11580;52.562;13.418;2023-06-19T04:05:06;100519.00;;;28.50
22828;BMP180;11580;52.562;13.418;2023-06-19T04:07:33;100517.00;;;28.30
22828;BMP180;11580;52.562;13.418;2023-06-19T04:10:03;100511.00;;;28.10
22828;BMP180;11580;52.562;13.418;2023-06-19T04:12:33;100502.00;;;27.90
22828;BMP180;11580;52.562;13.418;2023-06-19T04:15:00;100495.00;;;27.60
22828;BMP180;11580;52.562;13.418;2023-06-19T04:17:28;100499.00;;;27.40
22828;BMP180;11580;52.562;13.418;2023-06-19T04:19:55;100491.00;;;27.10
22828;BMP180;11580;52.562;13.418;2023-06-19T04:22:22;100483.00;;;26.90
22828;BMP180;11580;52.562;13.418;2023-06-19T04:24:50;100483.00;;;26.70
22828;BMP180;11580;52.562;13.418;2023-06-19T04:27:17;100488.00;;;26.40
22828;BMP180;11580;52.562;13.418;2023-06-19T04:29:45;100491.00;;;26.30
22828;BMP180;11580;52.562;13.418;2023-06-19T04:32:13;100487.00;;;26.10
22828;BMP180;11580;52.562;13.418;2023-06-19T04:34:41;100488.00;;;26.00
22828;BMP180;11580;52.562;13.418;2023-06-19T04:37:12;100482.00;;;25.80
22828;BMP180;11580;52.562;13.418;2023-06-19T04:39:39;100489.00;;;25.70
22828;BMP180;11580;52.562;13.418;2023-06-19T04:42:07;100497.00;;;25.60
22828;BMP180;11580;52.562;13.418;2023-06-19T04:44:34;100503.00;;;25.60
22828;BMP180;11580;52.562;13.418;2023-06-19T04:47:03;100506.00;;;25.50
22828;BMP180;11580;52.562;13.418;2023-06-19T04:49:30;100506.00;;;25.50
22828;BMP180;11580;52.562;13.418;2023-06-19T04:51:58;100510.00;;;25.40
22828;BMP180;11580;52.562;13.418;2023-06-19T04:54:25;100509.00;;;25.40
22828;BMP180;11580;52.562;13.418;2023-06-19T04:56:52;100506.00;;;25.40
22828;BMP180;11580;52.562;13.418;2023-06-19T04:59:20;100509.00;;;25.40
22828;BMP180;11580;52.562;13.418;2023-06-19T05:01:48;100507.00;;;25.30
22828;BMP180;11580;52.562;13.418;2023-06-19T05:04:16;100515.00;;;25.30
22828;BMP180;11580;52.562;13.418;2023-06-19T05:06:43;100514.00;;;25.30
22828;BMP180;11580;52.562;13.418;2023-06-19T05:09:10;100519.00;;;25.30
22828;BMP180;11580;52.562;13.418;2023-06-19T05:11:38;100498.00;;;25.20
22828;BMP180;11580;52.562;13.418;2023-06-19T05:14:05;100528.00;;;25.20
22828;BMP180;11580;52.562;13.418;2023-06-19T05:16:33;100520.00;;;25.20
22828;BMP180;11580;52.562;13.418;2023-06-19T05:19:00;100526.00;;;25.20
22828;BMP180;11580;52.562;13.418;2023-06-19T05:21:29;100530.00;;;25.10
22828;BMP180;11580;52.562;13.418;2023-06-19T05:23:56;100528.00;;;25.10
22828;BMP180;11580;52.562;13.418;2023-06-19T05:26:23;100526.00;;;25.10
22828;BMP180;11580;52.562;13.418;2023-06-19T05:28:52;100526.00;;;25.10
22828;BMP180;11580;52.562;13.418;2023-06-19T05:31:19;100525.00;;;25.10
22828;BMP180;11580;52.562;13.418;2023-06-19T05:33:46;100519.00;;;25.10
22828;BMP180;11580;52.562;13.418;2023-06-19T05:36:13;100526.00;;;25.10
22828;BMP180;11580;52.562;13.418;2023-06-19T05:38:42;100522.00;;;25.10
22828;BMP180;11580;52.562;13.418;2023-06-19T05:41:09;100527.00;;;25.10
22828;BMP180;11580;52.562;13.418;2023-06-19T05:43:36;100524.00;;;25.10
22828;BMP180;11580;52.562;13.418;2023-06-19T05:46:03;100529.00;;;25.10
22828;BMP180;11580;52.562;13.418;2023-06-19T05:48:31;100524.00;;;25.10
22828;BMP180;11580;52.562;13.418;2023-06-19T05:50:58;100532.00;;;25.20
22828;BMP180;11580;52.562;13.418;2023-06-19T05:53:25;100525.00;;;25.20
22828;BMP180;11580;52.562;13.418;2023-06-19T05:55:54;100527.00;;;25.20
22828;BMP180;11580;52.562;13.418;2023-06-19T05:58:21;100536.00;;;25.20
22828;BMP180;11580;52.562;13.418;2023-06-19T06:00:49;100527.00;;;25.20
22828;BMP180;11580;52.562;13.418;2023-06-19T06:03:23;100530.00;;;25.30
22828;BMP180;11580;52.562;13.418;2023-06-19T06:05:51;100530.00;;;25.30
22828;BMP180;11580;52.562;13.418;2023-06-19T06:08:18;100522.00;;;25.30
22828;BMP180;11580;52.562;13.418;2023-06-19T06:10:45;100521.00;;;25.30
22828;BMP180;11580;52.562;13.418;2023-06-19T06:13:14;100517.00;;;25.30
22828;BMP180;11580;52.562;13.418;2023-06-19T06:15:41;100511.00;;;25.30
22828;BMP180;11580;52.562;13.418;2023-06-19T06:18:08;100508.00;;;25.40
22828;BMP180;11580;52.562;13.418;2023-06-19T06:20:35;100512.00;;;25.40
22828;BMP180;11580;52.562;13.418;2023-06-19T06:23:02;100513.00;;;25.40
22828;BMP180;11580;52.562;13.418;2023-06-19T06:25:29;100503.00;;;25.40
22828;BMP180;11580;52.562;13.418;2023-06-19T06:27:57;100503.00;;;25.50
22828;BMP180;11580;52.562;13.418;2023-06-19T06:30:25;100521.00;;;25.50
22828;BMP180;11580;52.562;13.418;2023-06-19T06:32:53;100527.00;;;25.60
22828;BMP180;11580;52.562;13.418;2023-06-19T06:35:20;100533.00;;;25.70
22828;BMP180;11580;52.562;13.418;2023-06-19T06:37:48;100524.00;;;25.80
22828;BMP180;11580;52.562;13.418;2023-06-19T06:40:16;100523.00;;;25.80
22828;BMP180;11580;52.562;13.418;2023-06-19T06:42:43;100526.00;;;25.90
22828;BMP180;11580;52.562;13.418;2023-06-19T06:45:10;100525.00;;;25.90
22828;BMP180;11580;52.562;13.418;2023-06-19T06:47:39;100526.00;;;26.00
22828;BMP180;11580;52.562;13.418;2023-06-19T06:50:08;100510.00;;;26.00
22828;BMP180;11580;52.562;13.418;2023-06-19T06:52:35;100533.00;;;26.10
22828;BMP180;11580;52.562;13.418;2023-06-19T06:55:04;100535.00;;;26.20
22828;BMP180;11580;52.562;13.418;2023-06-19T06:57:31;100540.00;;;26.20
22828;BMP180;11580;52.562;13.418;2023-06-19T06:59:58;100536.00;;;26.30
22828;BMP180;11580;52.562;13.418;2023-06-19T07:02:26;100543.00;;;26.40
22828;BMP180;11580;52.562;13.418;2023-06-19T07:04:55;100553.00;;;26.50
22828;BMP180;11580;52.562;13.418;2023-06-19T07:07:22;100558.00;;;26.70
22828;BMP180;11580;52.562;13.418;2023-06-19T07:09:49;100558.00;;;26.80
22828;BMP180;11580;52.562;13.418;2023-06-19T07:12:16;100553.00;;;26.90
22828;BMP180;11580;52.562;13.418;2023-06-19T07:14:43;100555.00;;;27.10
22828;BMP180;11580;52.562;13.418;2023-06-19T07:17:10;100563.00;;;27.20
22828;BMP180;11580;52.562;13.418;2023-06-19T07:19:38;100547.00;;;27.40
22828;BMP180;11580;52.562;13.418;2023-06-19T07:22:06;100552.00;;;27.60
22828;BMP180;11580;52.562;13.418;2023-06-19T07:24:34;100548.00;;;27.70
22828;BMP180;11580;52.562;13.418;2023-06-19T07:27:01;100547.00;;;27.80
22828;BMP180;11580;52.562;13.418;2023-06-19T07:29:28;100549.00;;;27.90
22828;BMP180;11580;52.562;13.418;2023-06-19T07:31:55;100549.00;;;28.00
22828;BMP180;11580;52.562;13.418;2023-06-19T07:34:22;100553.00;;;28.10
22828;BMP180;11580;52.562;13.418;2023-06-19T07:36:49;100563.00;;;28.20
22828;BMP180;11580;52.562;13.418;2023-06-19T07:39:18;100561.00;;;28.30
22828;BMP180;11580;52.562;13.418;2023-06-19T07:41:45;100565.00;;;28.40
22828;BMP180;11580;52.562;13.418;2023-06-19T07:44:12;100570.00;;;28.50
22828;BMP180;11580;52.562;13.418;2023-06-19T07:46:43;100568.00;;;28.60
22828;BMP180;11580;52.562;13.418;2023-06-19T07:49:10;100565.00;;;28.70
22828;BMP180;11580;52.562;13.418;2023-06-19T07:51:37;100573.00;;;28.80
22828;BMP180;11580;52.562;13.418;2023-06-19T07:54:04;100578.00;;;28.90
22828;BMP180;11580;52.562;13.418;2023-06-19T07:56:33;100586.00;;;29.10
22828;BMP180;11580;52.562;13.418;2023-06-19T07:59:00;100593.00;;;29.10
22828;BMP180;11580;52.562;13.418;2023-06-19T08:01:27;100593.00;;;29.20
22828;BMP180;11580;52.562;13.418;2023-06-19T08:03:55;100581.00;;;29.30
22828;BMP180;11580;52.562;13.418;2023-06-19T08:06:22;100580.00;;;29.40
22828;BMP180;11580;52.562;13.418;2023-06-19T08:08:49;100579.00;;;29.40
22828;BMP180;11580;52.562;13.418;2023-06-19T08:11:17;100586.00;;;29.40
22828;BMP180;11580;52.562;13.418;2023-06-19T08:13:46;100586.00;;;29.40
22828;BMP180;11580;52.562;13.418;2023-06-19T08:16:14;100592.00;;;29.40
22828;BMP180;11580;52.562;13.418;2023-06-19T08:18:41;100582.00;;;29.40
22828;BMP180;11580;52.562;13.418;2023-06-19T08:21:08;100587.00;;;29.40
22828;BMP180;11580;52.562;13.418;2023-06-19T08:23:35;100587.00;;;29.40
22828;BMP180;11580;52.562;13.418;2023-06-19T08:26:03;100588.00;;;29.40
22828;BMP180;11580;52.562;13.418;2023-06-19T08:28:32;100591.00;;;29.40
22828;BMP180;11580;52.562;13.418;2023-06-19T08:31:00;100583.00;;;29.40
22828;BMP180;11580;52.562;13.418;2023-06-19T08:33:28;100588.00;;;29.40
22828;BMP180;11580;52.562;13.418;2023-06-19T08:35:55;100590.00;;;29.40
22828;BMP180;11580;52.562;13.418;2023-06-19T08:38:22;100588.00;;;29.50
22828;BMP180;11580;52.562;13.418;2023-06-19T08:40:49;100590.00;;;29.50
22828;BMP180;11580;52.562;13.418;2023-06-19T08:43:17;100583.00;;;29.50
22828;BMP180;11580;52.562;13.418;2023-06-19T08:46:00;100582.00;;;29.50
22828;BMP180;11580;52.562;13.418;2023-06-19T08:48:35;100587.00;;;29.50
22828;BMP180;11580;52.562;13.418;2023-06-19T08:51:02;100594.00;;;29.50
22828;BMP180;11580;52.562;13.418;2023-06-19T08:53:33;100582.00;;;29.50
22828;BMP180;11580;52.562;13.418;2023-06-19T08:56:03;100587.00;;;29.50
22828;BMP180;11580;52.562;13.418;2023-06-19T08:58:30;100575.00;;;29.50
22828;BMP180;11580;52.562;13.418;2023-06-19T09:00:58;100581.00;;;29.60
22828;BMP180;11580;52.562;13.418;2023-06-19T09:03:26;100577.00;;;29.60
22828;BMP180;11580;52.562;13.418;2023-06-19T09:05:54;100576.00;;;29.50
22828;BMP180;11580;52.562;13.418;2023-06-19T09:08:23;100574.00;;;29.50
22828;BMP180;11580;52.562;13.418;2023-06-19T09:10:57;100586.00;;;29.50
22828;BMP180;11580;52.562;13.418;2023-06-19T09:13:25;100582.00;;;29.40
22828;BMP180;11580;52.562;13.418;2023-06-19T09:16:00;100588.00;;;29.40
22828;BMP180;11580;52.562;13.418;2023-06-19T09:18:30;100591.00;;;29.40
22828;BMP180;11580;52.562;13.418;2023-06-19T09:20:59;100588.00;;;29.40
22828;BMP180;11580;52.562;13.418;2023-06-19T09:23:26;100589.00;;;29.30
22828;BMP180;11580;52.562;13.418;2023-06-19T09:25:58;100599.00;;;29.30
22828;BMP180;11580;52.562;13.418;2023-06-19T09:28:28;100597.00;;;29.30
22828;BMP180;11580;52.562;13.418;2023-06-19T09:30:57;100594.00;;;29.40
22828;BMP180;11580;52.562;13.418;2023-06-19T09:33:27;100587.00;;;29.40
22828;BMP180;11580;52.562;13.418;2023-06-19T09:35:56;100591.00;;;29.50
22828;BMP180;11580;52.562;13.418;2023-06-19T09:38:27;100579.00;;;29.60
22828;BMP180;11580;52.562;13.418;2023-06-19T09:40:56;100586.00;;;29.60
22828;BMP180;11580;52.562;13.418;2023-06-19T09:43:30;100578.00;;;29.60
22828;BMP180;11580;52.562;13.418;2023-06-19T09:46:02;100583.00;;;29.70
22828;BMP180;11580;52.562;13.418;2023-06-19T09:48:31;100588.00;;;29.80
22828;BMP180;11580;52.562;13.418;2023-06-19T09:51:09;100591.00;;;29.90
22828;BMP180;11580;52.562;13.418;2023-06-19T09:53:38;100592.00;;;30.00
22828;BMP180;11580;52.562;13.418;2023-06-19T09:56:06;100597.00;;;30.20
22828;BMP180;11580;52.562;13.418;2023-06-19T09:58:34;100597.00;;;30.40
22828;BMP180;11580;52.562;13.418;2023-06-19T10:01:04;100597.00;;;30.70
22828;BMP180;11580;52.562;13.418;2023-06-19T10:03:33;100594.00;;;30.90
22828;BMP180;11580;52.562;13.418;2023-06-19T10:06:03;100597.00;;;31.10
22828;BMP180;11580;52.562;13.418;2023-06-19T10:08:38;100599.00;;;31.30
22828;BMP180;11580;52.562;13.418;2023-06-19T10:11:07;100594.00;;;31.50
22828;BMP180;11580;52.562;13.418;2023-06-19T10:13:37;100591.00;;;31.70
22828;BMP180;11580;52.562;13.418;2023-06-19T10:16:05;100583.00;;;31.90
22828;BMP180;11580;52.562;13.418;2023-06-19T10:18:44;100572.00;;;32.10
22828;BMP180;11580;52.562;13.418;2023-06-19T10:21:16;100568.00;;;32.20
22828;BMP180;11580;52.562;13.418;2023-06-19T10:23:54;100572.00;;;32.40
22828;BMP180;11580;52.562;13.418;2023-06-19T10:26:32;100570.00;;;32.50
22828;BMP180;11580;52.562;13.418;2023-06-19T10:29:00;100565.00;;;32.50
22828;BMP180;11580;52.562;13.418;2023-06-19T10:31:27;100571.00;;;32.70
22828;BMP180;11580;52.562;13.418;2023-06-19T10:33:55;100556.00;;;32.80
22828;BMP180;11580;52.562;13.418;2023-06-19T10:36:23;100559.00;;;33.00
22828;BMP180;11580;52.562;13.418;2023-06-19T10:38:52;100556.00;;;33.10
22828;BMP180;11580;52.562;13.418;2023-06-19T10:41:22;100552.00;;;33.30
22828;BMP180;11580;52.562;13.418;2023-06-19T10:43:57;100552.00;;;33.40
22828;BMP180;11580;52.562;13.418;2023-06-19T10:46:29;100546.00;;;33.50
22828;BMP180;11580;52.562;13.418;2023-06-19T10:48:58;100533.00;;;33.60
22828;BMP180;11580;52.562;13.418;2023-06-19T10:51:27;100535.00;;;33.60
22828;BMP180;11580;52.562;13.418;2023-06-19T10:53:55;100522.00;;;33.70
22828;BMP180;11580;52.562;13.418;2023-06-19T10:56:24;100529.00;;;33.70
22828;BMP180;11580;52.562;13.418;2023-06-19T10:58:59;100526.00;;;33.80
22828;BMP180;11580;52.562;13.418;2023-06-19T11:01:38;100524.00;;;33.80
22828;BMP180;11580;52.562;13.418;2023-06-19T11:04:07;100522.00;;;33.80
22828;BMP180;11580;52.562;13.418;2023-06-19T11:06:35;100523.00;;;33.80
22828;BMP180;11580;52.562;13.418;2023-06-19T11:09:03;100519.00;;;33.70
22828;BMP180;11580;52.562;13.418;2023-06-19T11:11:39;100527.00;;;33.70
22828;BMP180;11580;52.562;13.418;2023-06-19T11:14:08;100519.00;;;33.70
22828;BMP180;11580;52.562;13.418;2023-06-19T11:16:40;100507.00;;;33.60
22828;BMP180;11580;52.562;13.418;2023-06-19T11:19:09;100506.00;;;33.60
22828;BMP180;11580;52.562;13.418;2023-06-19T11:21:37;100511.00;;;33.60
22828;BMP180;11580;52.562;13.418;2023-06-19T11:24:10;100517.00;;;33.60
22828;BMP180;11580;52.562;13.418;2023-06-19T11:26:38;100516.00;;;33.70
22828;BMP180;11580;52.562;13.418;2023-06-19T11:29:19;100515.00;;;33.70
22828;BMP180;11580;52.562;13.418;2023-06-19T11:31:49;100524.00;;;33.80
22828;BMP180;11580;52.562;13.418;2023-06-19T11:34:17;100529.00;;;34.00
22828;BMP180;11580;52.562;13.418;2023-06-19T11:36:45;100535.00;;;34.10
22828;BMP180;11580;52.562;13.418;2023-06-19T11:39:15;100533.00;;;34.30
22828;BMP180;11580;52.562;13.418;2023-06-19T11:41:44;100533.00;;;34.50
22828;BMP180;11580;52.562;13.418;2023-06-19T11:44:11;100536.00;;;34.60
22828;BMP180;11580;52.562;13.418;2023-06-19T11:46:40;100529.00;;;34.70
22828;BMP180;11580;52.562;13.418;2023-06-19T11:49:10;100526.00;;;34.90
22828;BMP180;11580;52.562;13.418;2023-06-19T11:51:39;100527.00;;;35.00
22828;BMP180;11580;52.562;13.418;2023-06-19T11:54:08;100523.00;;;35.10
22828;BMP180;11580;52.562;13.418;2023-06-19T11:56:36;100533.00;;;35.20
22828;BMP180;11580;52.562;13.418;2023-06-19T11:59:04;100534.00;;;35.20
22828;BMP180;11580;52.562;13.418;2023-06-19T12:01:32;100535.00;;;35.20
22828;BMP180;11580;52.562;13.418;2023-06-19T12:04:02;100534.00;;;35.10
22828;BMP180;11580;52.562;13.418;2023-06-19T12:06:30;100530.00;;;35.00
22828;BMP180;11580;52.562;13.418;2023-06-19T12:08:58;100527.00;;;34.90
22828;BMP180;11580;52.562;13.418;2023-06-19T12:11:25;100525.00;;;34.80
22828;BMP180;11580;52.562;13.418;2023-06-19T12:13:52;100521.00;;;34.70
22828;BMP180;11580;52.562;13.418;2023-06-19T12:16:21;100531.00;;;34.60
22828;BMP180;11580;52.562;13.418;2023-06-19T12:18:49;100524.00;;;34.40
22828;BMP180;11580;52.562;13.418;2023-06-19T12:21:17;100527.00;;;34.30
22828;BMP180;11580;52.562;13.418;2023-06-19T12:23:44;100517.00;;;34.20
22828;BMP180;11580;52.562;13.418;2023-06-19T12:26:11;100514.00;;;34.20
22828;BMP180;11580;52.562;13.418;2023-06-19T12:28:38;100512.00;;;34.20
22828;BMP180;11580;52.562;13.418;2023-06-19T12:31:06;100514.00;;;34.20
22828;BMP180;11580;52.562;13.418;2023-06-19T12:33:33;100513.00;;;34.30
22828;BMP180;11580;52.562;13.418;2023-06-19T12:36:03;100511.00;;;34.40
22828;BMP180;11580;52.562;13.418;2023-06-19T12:38:32;100514.00;;;34.50
22828;BMP180;11580;52.562;13.418;2023-06-19T12:41:04;100512.00;;;34.50
22828;BMP180;11580;52.562;13.418;2023-06-19T12:43:31;100517.00;;;34.50
22828;BMP180;11580;52.562;13.418;2023-06-19T12:45:59;100518.00;;;34.60
22828;BMP180;11580;52.562;13.418;2023-06-19T12:48:27;100501.00;;;34.50
22828;BMP180;11580;52.562;13.418;2023-06-19T12:50:54;100512.00;;;34.50
22828;BMP180;11580;52.562;13.418;2023-06-19T12:53:21;100509.00;;;34.40
22828;BMP180;11580;52.562;13.418;2023-06-19T12:55:53;100506.00;;;34.30
22828;BMP180;11580;52.562;13.418;2023-06-19T12:58:20;100509.00;;;34.20
22828;BMP180;11580;52.562;13.418;2023-06-19T13:00:48;100498.00;;;34.10
22828;BMP180;11580;52.562;13.418;2023-06-19T13:03:15;100503.00;;;34.00
22828;BMP180;11580;52.562;13.418;2023-06-19T13:05:42;100499.00;;;34.00
22828;BMP180;11580;52.562;13.418;2023-06-19T13:08:09;100502.00;;;33.90
22828;BMP180;11580;52.562;13.418;2023-06-19T13:10:36;100495.00;;;33.80
22828;BMP180;11580;52.562;13.418;2023-06-19T13:13:05;100502.00;;;33.80
22828;BMP180;11580;52.562;13.418;2023-06-19T13:15:33;100500.00;;;33.80
22828;BMP180;11580;52.562;13.418;2023-06-19T13:18:00;100496.00;;;33.80
22828;BMP180;11580;52.562;13.418;2023-06-19T13:20:27;100491.00;;;33.90
22828;BMP180;11580;52.562;13.418;2023-06-19T13:22:55;100498.00;;;33.90
22828;BMP180;11580;52.562;13.418;2023-06-19T13:25:22;100496.00;;;34.00
22828;BMP180;11580;52.562;13.418;2023-06-19T13:27:49;100497.00;;;34.00
22828;BMP180;11580;52.562;13.418;2023-06-19T13:30:17;100497.00;;;34.10
22828;BMP180;11580;52.562;13.418;2023-06-19T13:32:44;100490.00;;;34.10
22828;BMP180;11580;52.562;13.418;2023-06-19T13:35:12;100490.00;;;34.10
22828;BMP180;11580;52.562;13.418;2023-06-19T13:37:39;100486.00;;;34.20
22828;BMP180;11580;52.562;13.418;2023-06-19T13:40:08;100484.00;;;34.20
22828;BMP180;11580;52.562;13.418;2023-06-19T13:42:35;100486.00;;;34.20
22828;BMP180;11580;52.562;13.418;2023-06-19T13:45:03;100485.00;;;34.20
22828;BMP180;11580;52.562;13.418;2023-06-19T13:47:32;100477.00;;;34.20
22828;BMP180;11580;52.562;13.418;2023-06-19T13:49:59;100472.00;;;34.10
22828;BMP180;11580;52.562;13.418;2023-06-19T13:52:27;100476.00;;;34.10